createdAt,value
2023-04-08T00:02:07.202Z,95.3
2023-04-08T00:14:06.982Z,95.2
2023-04-08T00:26:07.067Z,95.6
2023-04-08T00:38:06.989Z,95.5
2023-04-08T00:50:07.080Z,95.5
2023-04-08T01:02:07.174Z,96.0
2023-04-08T01:14:07.079Z,96.2
2023-04-08T01:26:06.995Z,96.5
2023-04-08T01:38:07.246Z,96.3
2023-04-08T01:50:07.085Z,96.2
2023-04-08T02:02:07.172Z,95.8
2023-04-08T02:14:07.113Z,94.0
2023-04-08T02:26:06.978Z,94.3
2023-04-08T02:38:07.005Z,94.7
2023-04-08T02:50:07.089Z,92.9
2023-04-08T03:02:07.201Z,92.6
2023-04-08T03:14:07.091Z,93.0
2023-04-08T03:26:07.003Z,92.1
2023-04-08T03:38:07.030Z,92.3
2023-04-08T03:50:07.110Z,94.0
2023-04-08T04:02:07.112Z,94.2
2023-04-08T04:14:06.991Z,95.2
2023-04-08T04:26:07.818Z,95.5
2023-04-08T04:38:07.018Z,96.3
2023-04-08T04:50:06.976Z,96.5
2023-04-08T05:02:07.209Z,96.5
2023-04-08T05:14:07.085Z,96.7
2023-04-08T05:26:07.001Z,96.6
2023-04-08T05:38:07.095Z,96.3
2023-04-08T05:50:06.992Z,96.1
2023-04-08T06:02:07.151Z,95.7
2023-04-08T06:14:07.150Z,94.7
2023-04-08T06:26:07.084Z,94.5
2023-04-08T06:38:07.066Z,93.8
2023-04-08T06:50:07.040Z,94.2
2023-04-08T07:02:06.997Z,94.1
2023-04-08T07:14:07.033Z,92.2
2023-04-08T07:26:07.037Z,91.5
2023-04-08T07:38:07.077Z,88.1
2023-04-08T07:50:06.985Z,86.7
2023-04-08T08:02:07.057Z,87.3
2023-04-08T08:14:07.066Z,86.3
2023-04-08T08:26:07.119Z,86.6
2023-04-08T08:38:07.074Z,86.0
2023-04-08T08:50:07.032Z,86.4
2023-04-08T09:02:07.197Z,84.9
2023-04-08T09:14:07.119Z,83.2
2023-04-08T09:26:07.072Z,82.3
2023-04-08T09:38:07.048Z,80.1
2023-04-08T09:50:07.079Z,79.1
2023-04-08T10:02:07.220Z,78.5
2023-04-08T10:14:07.119Z,79.8
2023-04-08T10:26:06.990Z,77.5
2023-04-08T10:38:07.084Z,75.5
2023-04-08T10:50:06.966Z,77.1
2023-04-08T11:02:07.268Z,77.6
2023-04-08T11:14:07.044Z,75.9
2023-04-08T11:26:07.091Z,77.4
2023-04-08T11:38:07.013Z,75.6
2023-04-08T11:50:07.099Z,76.2
2023-04-08T12:02:07.064Z,75.3
2023-04-08T12:14:07.097Z,75.3
2023-04-08T12:26:07.106Z,73.6
2023-04-08T12:38:07.116Z,72.9
2023-04-08T12:50:07.045Z,69.8
2023-04-08T13:02:07.209Z,71.4
2023-04-08T13:14:07.102Z,72.6
2023-04-08T13:26:07.135Z,74.1
2023-04-08T13:38:07.045Z,76.2
2023-04-08T13:50:07.148Z,75.7
2023-04-08T14:02:07.081Z,74.7
2023-04-08T14:14:07.091Z,74.7
2023-04-08T14:26:07.070Z,74.5
2023-04-08T14:38:07.092Z,74.8
2023-04-08T14:50:06.981Z,75.0
2023-04-08T15:02:07.282Z,74.2
2023-04-08T15:14:07.003Z,75.8
2023-04-08T15:26:07.008Z,75.8
2023-04-08T15:38:07.094Z,75.4
2023-04-08T15:50:07.084Z,74.6
2023-04-08T16:02:07.097Z,74.8
2023-04-08T16:14:07.105Z,74.9
2023-04-08T16:26:07.087Z,75.0
2023-04-08T16:38:07.135Z,75.1
2023-04-08T16:50:06.977Z,75.4
2023-04-08T17:02:07.068Z,74.8
2023-04-08T17:14:07.466Z,75.8
2023-04-08T17:26:07.067Z,75.0
2023-04-08T17:38:07.061Z,75.4
2023-04-08T17:50:07.132Z,76.0
2023-04-08T18:02:07.051Z,76.8
2023-04-08T18:14:06.986Z,77.1
2023-04-08T18:26:07.016Z,77.7
2023-04-08T18:38:07.047Z,76.6
2023-04-08T18:50:07.596Z,75.7
2023-04-08T19:02:07.214Z,78.6
2023-04-08T19:14:06.999Z,78.2
2023-04-08T19:26:07.092Z,77.9
2023-04-08T19:38:06.992Z,79.9
2023-04-08T19:50:07.083Z,81.0
2023-04-08T20:02:07.086Z,81.4
2023-04-08T20:14:07.105Z,82.3
2023-04-08T20:26:07.059Z,82.3
2023-04-08T20:38:07.104Z,83.2
2023-04-08T20:50:07.060Z,84.2
2023-04-08T21:02:07.194Z,85.0
2023-04-08T21:14:07.112Z,85.2
2023-04-08T21:26:07.087Z,86.5
2023-04-08T21:38:07.056Z,84.8
2023-04-08T21:50:07.073Z,83.4
2023-04-08T22:02:08.286Z,81.3
2023-04-08T22:14:06.998Z,79.9
2023-04-08T22:26:07.068Z,79.8
2023-04-08T22:38:07.062Z,78.2
2023-04-08T22:50:07.080Z,76.9
2023-04-08T23:02:07.123Z,77.3
2023-04-08T23:14:06.983Z,75.6
2023-04-08T23:26:07.107Z,75.0
2023-04-08T23:38:07.104Z,77.0
2023-04-08T23:50:07.045Z,78.8
